Time;durP1;ratioP1;P1;durP2;ratioP2;P2;SDS_P1;SDS_P2;PMS_P1;PMS_P2;Temp;Humidity;BMP_temperature;BMP_pressure;BME280_temperature;BME280_humidity;BME280_pressure;Samples;Min_cycle;Max_cycle;Signal;HPM_P1;HPM_P2
2024/03/19 00:00:19;;;;;;;23.50;15.85;;;11.20;99.90;;;;;;5047304;28;20231;-59
2024/03/19 00:02:45;;;;;;;19.52;15.68;;;11.20;99.90;;;;;;5048621;28;20028;-60
2024/03/19 00:05:10;;;;;;;20.27;16.30;;;11.30;99.90;;;;;;5048567;28;20487;-59
2024/03/19 00:07:36;;;;;;;18.55;14.20;;;11.30;99.90;;;;;;5048410;28;20569;-60
2024/03/19 00:10:01;;;;;;;16.98;14.02;;;11.20;99.90;;;;;;5048325;28;20388;-62
2024/03/19 00:12:30;;;;;;;22.17;15.05;;;11.20;99.90;;;;;;5048710;28;20025;-58
2024/03/19 00:14:55;;;;;;;18.10;15.25;;;11.20;99.90;;;;;;5048589;28;20033;-66
2024/03/19 00:17:21;;;;;;;19.65;14.52;;;11.20;99.90;;;;;;5049706;28;20051;-61
2024/03/19 00:19:47;;;;;;;17.98;14.32;;;11.10;99.90;;;;;;5046934;28;20396;-58
2024/03/19 00:22:12;;;;;;;18.88;15.07;;;11.00;99.90;;;;;;5049301;28;20032;-58
2024/03/19 00:24:38;;;;;;;18.88;14.40;;;10.90;99.90;;;;;;5046836;28;20029;-58
2024/03/19 00:27:03;;;;;;;18.08;13.40;;;10.80;99.90;;;;;;5048608;28;20502;-59
2024/03/19 00:29:29;;;;;;;16.77;14.57;;;10.80;99.90;;;;;;5050105;28;20058;-62
2024/03/19 00:31:54;;;;;;;20.33;14.48;;;10.70;99.90;;;;;;5051071;28;20031;-64
2024/03/19 00:34:20;;;;;;;24.27;15.90;;;10.70;99.90;;;;;;5052251;28;20259;-58
2024/03/19 00:36:46;;;;;;;22.63;16.88;;;10.60;99.90;;;;;;5052339;28;20029;-59
2024/03/19 00:39:11;;;;;;;22.70;16.85;;;10.60;99.90;;;;;;5052216;28;20025;-61
2024/03/19 00:41:37;;;;;;;20.83;15.95;;;10.50;99.90;;;;;;5050702;28;20021;-61
2024/03/19 00:44:04;;;;;;;18.17;14.98;;;10.50;99.90;;;;;;5050941;28;20404;-61
2024/03/19 00:46:30;;;;;;;20.58;14.43;;;10.50;99.90;;;;;;5055730;28;20527;-57
2024/03/19 00:48:55;;;;;;;19.83;14.73;;;10.40;99.90;;;;;;5066892;28;20127;-65
2024/03/19 00:51:21;;;;;;;18.20;14.98;;;10.30;99.90;;;;;;5071958;28;20032;-64
2024/03/19 00:53:46;;;;;;;16.38;14.00;;;10.30;99.90;;;;;;5070546;28;20136;-61
2024/03/19 00:56:12;;;;;;;22.02;13.35;;;10.20;99.90;;;;;;5071810;28;20456;-61
2024/03/19 00:58:37;;;;;;;18.15;13.55;;;10.20;99.90;;;;;;5071984;28;20025;-61
2024/03/19 01:01:03;;;;;;;22.35;13.95;;;10.10;99.90;;;;;;5070431;28;20451;-61
2024/03/19 01:03:29;;;;;;;15.40;12.45;;;10.10;99.90;;;;;;5070473;28;20028;-63
2024/03/19 01:05:54;;;;;;;17.63;14.43;;;10.00;99.90;;;;;;5071932;28;20051;-61
2024/03/19 01:10:46;;;;;;;17.05;13.32;;;10.10;99.90;;;;;;5052112;22;20081;-57
2024/03/19 01:13:11;;;;;;;18.58;14.60;;;10.10;99.90;;;;;;5049756;28;20071;-57
2024/03/19 01:15:37;;;;;;;18.55;14.82;;;10.10;99.90;;;;;;5034617;28;20053;-58
2024/03/19 01:18:04;;;;;;;19.77;15.20;;;10.10;99.90;;;;;;5049701;28;20018;-53
2024/03/19 01:20:31;;;;;;;30.00;15.32;;;10.20;99.90;;;;;;5034401;28;20018;-60
2024/03/19 01:22:58;;;;;;;19.67;15.48;;;10.20;99.90;;;;;;5034513;28;20091;-57
2024/03/19 01:25:24;;;;;;;23.63;18.20;;;10.20;99.90;;;;;;5034271;28;20033;-58
2024/03/19 01:27:51;;;;;;;17.50;14.80;;;10.20;99.90;;;;;;5034353;28;20030;-58
2024/03/19 01:30:17;;;;;;;18.75;14.32;;;10.20;99.90;;;;;;5034312;28;20107;-57
2024/03/19 01:32:42;;;;;;;17.73;14.07;;;10.20;99.90;;;;;;5034742;28;20025;-56
2024/03/19 01:35:08;;;;;;;15.90;13.95;;;10.30;99.90;;;;;;5033144;28;20398;-58
2024/03/19 01:37:34;;;;;;;18.25;14.15;;;10.20;99.90;;;;;;5034306;28;20032;-58
2024/03/19 01:40:00;;;;;;;16.65;12.05;;;10.20;99.90;;;;;;5033476;28;20132;-55
2024/03/19 01:42:25;;;;;;;18.73;12.20;;;10.20;99.90;;;;;;5032272;28;20022;-55
2024/03/19 01:45:07;;;;;;;12.93;11.55;;;10.20;99.90;;;;;;5034177;28;20029;-59
2024/03/19 01:47:35;;;;;;;139.10;84.43;;;10.20;99.90;;;;;;5034180;28;20440;-57
2024/03/19 01:50:02;;;;;;;40.92;28.30;;;10.10;99.90;;;;;;5033922;28;20029;-57
2024/03/19 01:52:28;;;;;;;20.55;15.77;;;10.10;99.90;;;;;;5033958;28;20392;-57
2024/03/19 01:54:53;;;;;;;20.05;14.57;;;10.10;99.90;;;;;;5032714;28;20026;-55
2024/03/19 01:57:19;;;;;;;19.42;13.02;;;10.10;99.90;;;;;;5032768;28;20500;-55
2024/03/19 01:59:45;;;;;;;14.80;13.15;;;10.10;99.90;;;;;;5034041;28;20485;-56
2024/03/19 02:02:32;;;;;;;17.20;13.88;;;10.10;99.90;;;;;;5049384;28;20025;-57
2024/03/19 02:05:02;;;;;;;16.58;12.85;;;10.10;99.90;;;;;;5034258;28;20558;-57
2024/03/19 02:07:27;;;;;;;16.38;12.48;;;10.10;99.90;;;;;;5033977;28;20032;-56
2024/03/19 02:09:55;;;;;;;24.83;14.80;;;10.10;99.90;;;;;;5033460;28;20037;-53
2024/03/19 02:12:21;;;;;;;17.17;13.85;;;10.10;99.90;;;;;;5033035;28;20566;-56
2024/03/19 02:14:47;;;;;;;21.60;16.35;;;10.10;99.90;;;;;;5038465;28;20033;-56
2024/03/19 02:17:12;;;;;;;24.00;15.82;;;10.00;99.90;;;;;;5034286;28;20017;-54
2024/03/19 02:19:38;;;;;;;20.20;14.07;;;10.00;99.90;;;;;;5033711;28;20029;-58
2024/03/19 02:22:05;;;;;;;19.40;14.98;;;10.00;99.90;;;;;;5033683;28;20029;-58
2024/03/19 02:24:31;;;;;;;16.33;13.48;;;10.00;99.90;;;;;;5048955;28;20039;-58
2024/03/19 02:26:57;;;;;;;14.93;12.52;;;9.90;99.90;;;;;;5033336;28;20025;-57
2024/03/19 02:29:22;;;;;;;14.90;13.18;;;9.90;99.90;;;;;;5033306;28;20083;-60
2024/03/19 02:31:48;;;;;;;15.70;12.13;;;9.80;99.90;;;;;;5031907;28;20025;-55
2024/03/19 02:34:13;;;;;;;16.13;12.52;;;9.70;99.90;;;;;;5031822;28;20500;-58
2024/03/19 02:36:39;;;;;;;17.73;13.52;;;9.70;99.90;;;;;;5031935;28;20057;-59
2024/03/19 02:39:04;;;;;;;15.38;13.10;;;9.70;99.90;;;;;;5033349;28;20076;-56
2024/03/19 02:41:30;;;;;;;14.98;12.38;;;9.60;99.90;;;;;;5033099;28;20367;-57
2024/03/19 02:43:55;;;;;;;13.63;11.77;;;9.60;99.90;;;;;;5033128;28;20037;-56
2024/03/19 02:46:22;;;;;;;15.10;11.82;;;9.60;99.90;;;;;;5033068;28;20417;-57
2024/03/19 02:48:48;;;;;;;14.25;12.10;;;9.50;99.90;;;;;;5032797;28;20029;-56
2024/03/19 02:51:13;;;;;;;13.32;11.85;;;9.50;99.90;;;;;;5032669;28;20036;-59
2024/03/19 02:53:38;;;;;;;13.48;11.85;;;9.50;99.90;;;;;;5032444;28;20030;-56
2024/03/19 02:56:04;;;;;;;13.63;11.43;;;9.50;99.90;;;;;;5032930;28;20026;-58
2024/03/19 02:58:30;;;;;;;18.27;13.50;;;9.50;99.90;;;;;;5032496;28;20021;-55
2024/03/19 03:00:56;;;;;;;21.60;14.10;;;9.50;99.90;;;;;;5032541;28;20116;-56
2024/03/19 03:03:22;;;;;;;16.08;13.35;;;9.60;99.90;;;;;;5032512;28;20104;-54
2024/03/19 03:05:47;;;;;;;15.43;13.77;;;9.60;99.90;;;;;;5032539;28;20068;-55
2024/03/19 03:08:13;;;;;;;17.50;14.75;;;9.60;99.90;;;;;;5032403;28;20029;-55
2024/03/19 03:10:42;;;;;;;21.17;14.10;;;9.70;99.90;;;;;;5030679;28;20048;-56
2024/03/19 03:13:08;;;;;;;31.30;15.90;;;9.70;99.90;;;;;;5032303;28;20033;-52
2024/03/19 03:15:33;;;;;;;18.40;14.45;;;9.80;99.90;;;;;;5031346;28;20444;-57
2024/03/19 03:17:59;;;;;;;30.42;12.90;;;9.80;99.90;;;;;;5032221;28;20097;-55
2024/03/19 03:20:25;;;;;;;16.15;12.50;;;9.90;99.90;;;;;;5030739;28;20088;-55
2024/03/19 03:22:50;;;;;;;12.32;10.52;;;9.90;99.90;;;;;;5032258;28;20044;-56
2024/03/19 03:25:16;;;;;;;12.55;9.63;;;9.80;99.90;;;;;;5032207;28;20022;-52
2024/03/19 03:27:42;;;;;;;11.82;10.55;;;9.80;99.90;;;;;;5032203;28;20033;-56
2024/03/19 03:30:10;;;;;;;12.77;10.23;;;9.70;99.90;;;;;;5032226;28;20536;-53
2024/03/19 03:32:36;;;;;;;12.68;10.25;;;9.70;99.90;;;;;;5032089;28;20025;-52
2024/03/19 03:35:03;;;;;;;12.30;10.18;;;9.60;99.90;;;;;;5047751;28;20075;-57
2024/03/19 03:37:29;;;;;;;18.13;12.52;;;9.70;99.90;;;;;;5031879;28;20021;-56
2024/03/19 03:39:56;;;;;;;18.08;13.02;;;9.70;99.90;;;;;;5031681;28;20025;-60
2024/03/19 03:42:22;;;;;;;14.20;11.20;;;9.70;99.90;;;;;;5047137;28;20397;-58
2024/03/19 03:44:48;;;;;;;14.35;12.13;;;9.70;99.90;;;;;;5047238;28;20032;-59
2024/03/19 03:47:13;;;;;;;20.08;14.57;;;9.70;99.90;;;;;;5031825;28;20369;-58
2024/03/19 03:49:39;;;;;;;34.10;15.15;;;9.80;99.90;;;;;;5031675;28;20033;-54
2024/03/19 03:52:05;;;;;;;29.02;15.57;;;9.80;99.90;;;;;;5031727;28;20099;-59
2024/03/19 03:54:30;;;;;;;17.85;14.27;;;9.70;99.90;;;;;;5031744;28;20102;-56
2024/03/19 03:56:56;;;;;;;22.98;15.43;;;9.70;99.90;;;;;;5032012;28;20392;-54
2024/03/19 03:59:21;;;;;;;78.50;16.90;;;9.60;99.90;;;;;;5031649;28;20030;-53
2024/03/19 04:01:47;;;;;;;79.15;18.55;;;9.60;99.90;;;;;;5030531;28;20079;-56
2024/03/19 04:04:12;;;;;;;27.10;17.75;;;9.60;99.90;;;;;;5031240;28;20028;-53
2024/03/19 04:06:38;;;;;;;65.63;18.90;;;9.60;99.90;;;;;;5031746;28;20033;-56
2024/03/19 04:09:04;;;;;;;56.70;18.42;;;9.60;99.90;;;;;;5031595;28;20042;-54
2024/03/19 04:11:29;;;;;;;41.88;16.88;;;9.60;99.90;;;;;;5031245;28;20026;-55
2024/03/19 04:13:55;;;;;;;25.15;16.75;;;9.60;99.90;;;;;;5031616;28;20083;-56
2024/03/19 04:16:21;;;;;;;157.98;21.20;;;9.50;99.90;;;;;;5031327;28;20370;-58
2024/03/19 04:18:46;;;;;;;74.63;18.42;;;9.60;99.90;;;;;;5031453;28;20028;-58
2024/03/19 04:21:12;;;;;;;158.73;20.13;;;9.60;99.90;;;;;;5029979;28;20022;-58
2024/03/19 04:23:37;;;;;;;50.75;18.13;;;9.60;99.90;;;;;;5031301;28;20523;-57
2024/03/19 04:26:04;;;;;;;157.55;21.33;;;9.60;99.90;;;;;;5031274;28;20029;-56
2024/03/19 04:28:30;;;;;;;64.45;17.88;;;9.60;99.90;;;;;;5029985;28;20026;-58
2024/03/19 04:30:55;;;;;;;69.00;19.10;;;9.60;99.90;;;;;;5031171;28;20107;-58
2024/03/19 04:33:21;;;;;;;67.53;19.75;;;9.60;99.90;;;;;;5031154;28;20092;-58
2024/03/19 04:35:46;;;;;;;82.25;19.00;;;9.70;99.90;;;;;;5031226;28;20041;-57
2024/03/19 04:38:14;;;;;;;67.55;21.35;;;9.70;99.90;;;;;;5031159;28;20028;-60
2024/03/19 04:40:40;;;;;;;98.90;20.40;;;9.60;99.90;;;;;;5030935;28;20021;-56
2024/03/19 04:43:05;;;;;;;75.75;20.92;;;9.60;99.90;;;;;;5031056;28;20033;-58
2024/03/19 04:45:31;;;;;;;42.28;20.55;;;9.50;99.90;;;;;;5031111;28;20374;-56
2024/03/19 04:47:57;;;;;;;58.50;21.30;;;9.50;99.90;;;;;;5031093;28;20026;-57
2024/03/19 04:50:23;;;;;;;40.55;18.85;;;9.60;99.90;;;;;;5030844;28;20105;-60
2024/03/19 04:52:50;;;;;;;92.93;22.15;;;9.50;99.90;;;;;;5029666;28;20041;-56
2024/03/19 04:55:15;;;;;;;35.40;19.88;;;9.60;99.90;;;;;;5031083;28;20397;-58
2024/03/19 04:57:41;;;;;;;29.38;18.52;;;9.60;99.90;;;;;;5031014;28;20048;-54
2024/03/19 05:00:13;;;;;;;57.22;20.90;;;9.60;99.90;;;;;;5030840;28;20022;-57
2024/03/19 05:02:39;;;;;;;34.63;22.08;;;9.70;99.90;;;;;;5031112;28;20029;-58
2024/03/19 05:05:04;;;;;;;35.92;20.48;;;9.60;99.90;;;;;;5030973;28;20026;-59
2024/03/19 05:07:30;;;;;;;35.17;20.05;;;9.70;99.90;;;;;;5030827;28;20022;-55
2024/03/19 05:09:55;;;;;;;36.38;21.40;;;9.80;99.90;;;;;;5030259;28;20040;-55
2024/03/19 05:12:21;;;;;;;26.80;19.85;;;9.80;99.90;;;;;;5029485;28;20029;-55
2024/03/19 05:14:47;;;;;;;44.17;20.98;;;9.80;99.90;;;;;;5031718;28;20029;-56
2024/03/19 05:17:13;;;;;;;33.80;21.65;;;9.80;99.90;;;;;;5034907;28;20027;-55
2024/03/19 05:19:38;;;;;;;123.68;23.23;;;9.80;99.90;;;;;;5034323;28;20073;-57
2024/03/19 05:22:04;;;;;;;55.95;20.40;;;9.90;99.90;;;;;;5034488;28;20435;-56
2024/03/19 05:24:30;;;;;;;87.20;21.92;;;9.90;99.90;;;;;;5034416;28;20566;-56
2024/03/19 05:26:56;;;;;;;112.47;22.40;;;9.90;99.90;;;;;;5033083;28;20036;-55
2024/03/19 05:29:21;;;;;;;63.35;19.63;;;9.90;99.90;;;;;;5034398;28;20036;-56
2024/03/19 05:31:47;;;;;;;91.10;20.92;;;9.90;99.90;;;;;;5034330;28;20037;-53
2024/03/19 05:34:12;;;;;;;116.15;22.85;;;9.80;99.90;;;;;;5034159;28;20030;-59
2024/03/19 05:36:38;;;;;;;105.30;22.08;;;9.80;99.90;;;;;;5033977;28;20071;-55
2024/03/19 05:39:09;;;;;;;70.55;23.75;;;9.70;99.90;;;;;;5034202;28;20022;-59
2024/03/19 05:41:38;;;;;;;103.43;24.63;;;9.80;99.90;;;;;;5034219;28;20508;-58
2024/03/19 05:44:04;;;;;;;55.95;25.30;;;9.70;99.90;;;;;;5032902;28;20065;-58
2024/03/19 05:46:30;;;;;;;77.38;24.95;;;9.70;99.90;;;;;;5034023;28;20032;-60
2024/03/19 05:48:55;;;;;;;66.93;26.42;;;9.80;99.90;;;;;;5033891;28;20030;-55
2024/03/19 05:51:21;;;;;;;55.00;24.38;;;9.80;99.90;;;;;;5033823;28;20039;-58
2024/03/19 05:53:46;;;;;;;82.40;27.70;;;9.90;99.90;;;;;;5033869;28;20172;-56
2024/03/19 05:56:13;;;;;;;99.93;27.25;;;9.90;99.90;;;;;;5033851;28;20033;-55
2024/03/19 05:58:39;;;;;;;55.40;24.92;;;9.90;99.90;;;;;;5032455;28;20019;-54
2024/03/19 06:01:04;;;;;;;48.33;24.73;;;9.90;99.90;;;;;;5033683;28;20057;-56
2024/03/19 06:03:34;;;;;;;55.17;26.70;;;10.00;99.90;;;;;;5033597;28;20083;-56
2024/03/19 06:06:03;;;;;;;46.45;25.02;;;10.00;99.90;;;;;;5032451;28;20493;-52
2024/03/19 06:08:29;;;;;;;103.35;26.05;;;10.10;99.90;;;;;;5033365;28;20030;-57
2024/03/19 06:10:55;;;;;;;53.75;24.40;;;10.20;99.90;;;;;;5033220;28;20035;-57
2024/03/19 06:13:21;;;;;;;75.82;26.33;;;10.20;99.90;;;;;;5033477;28;20531;-58
2024/03/19 06:15:47;;;;;;;64.68;25.17;;;10.10;99.90;;;;;;5033559;28;20416;-57
2024/03/19 06:18:13;;;;;;;45.42;23.85;;;10.20;99.90;;;;;;5032139;28;20105;-58
2024/03/19 06:20:38;;;;;;;54.25;24.92;;;10.20;99.90;;;;;;5033187;28;20103;-59
2024/03/19 06:23:04;;;;;;;56.53;25.42;;;10.20;99.90;;;;;;5032205;28;20029;-58
2024/03/19 06:25:30;;;;;;;45.35;25.45;;;10.20;99.90;;;;;;5032257;28;20021;-54
2024/03/19 06:27:55;;;;;;;57.85;27.85;;;10.20;99.90;;;;;;5032750;28;20022;-57
2024/03/19 06:30:21;;;;;;;47.05;25.60;;;10.20;99.90;;;;;;5032938;28;20086;-55
2024/03/19 06:32:46;;;;;;;58.38;25.23;;;10.20;99.90;;;;;;5033037;28;20029;-57
2024/03/19 06:35:14;;;;;;;57.70;25.70;;;10.20;99.90;;;;;;5031851;28;20556;-53
2024/03/19 06:37:41;;;;;;;74.35;27.58;;;10.30;99.90;;;;;;5031877;28;20508;-58
2024/03/19 06:40:08;;;;;;;49.20;24.08;;;10.30;99.90;;;;;;5032953;28;20022;-55
2024/03/19 06:42:33;;;;;;;74.45;27.92;;;10.30;99.90;;;;;;5031601;28;20025;-57
2024/03/19 06:44:59;;;;;;;83.50;28.27;;;10.30;99.90;;;;;;5032965;28;20445;-55
2024/03/19 06:47:24;;;;;;;51.92;26.17;;;10.40;99.90;;;;;;5032903;28;20025;-58
2024/03/19 06:49:50;;;;;;;52.65;26.05;;;10.40;99.90;;;;;;5031359;28;20377;-56
2024/03/19 06:52:15;;;;;;;57.60;26.60;;;10.40;99.90;;;;;;5032661;28;20100;-57
2024/03/19 06:54:41;;;;;;;53.33;27.70;;;10.50;99.90;;;;;;5032637;28;20084;-57
2024/03/19 06:57:07;;;;;;;66.22;27.75;;;10.60;99.90;;;;;;5031500;28;20557;-59
2024/03/19 06:59:33;;;;;;;94.35;28.50;;;10.70;99.90;;;;;;5032497;28;20053;-52
2024/03/19 07:01:59;;;;;;;71.03;28.70;;;10.70;99.90;;;;;;5031096;28;20053;-58
2024/03/19 07:04:27;;;;;;;67.10;27.08;;;10.80;99.90;;;;;;5032366;28;20022;-55
2024/03/19 07:06:53;;;;;;;59.85;25.95;;;10.90;99.90;;;;;;5031157;28;20087;-54
2024/03/19 07:09:20;;;;;;;54.72;24.98;;;10.90;99.90;;;;;;5032594;28;20497;-53
2024/03/19 07:11:46;;;;;;;61.95;23.50;;;11.00;99.90;;;;;;5032409;28;20025;-58
2024/03/19 07:14:11;;;;;;;74.97;23.27;;;11.00;99.90;;;;;;5031132;28;20038;-56
2024/03/19 07:16:38;;;;;;;53.78;23.33;;;11.00;99.90;;;;;;5032352;28;20025;-58
2024/03/19 07:19:04;;;;;;;43.53;20.77;;;11.00;99.90;;;;;;5032333;28;20029;-57
2024/03/19 07:21:29;;;;;;;53.20;23.58;;;10.90;99.90;;;;;;5030876;28;20044;-59
2024/03/19 07:23:55;;;;;;;48.00;21.50;;;11.00;99.90;;;;;;5032226;28;20018;-57
2024/03/19 07:26:20;;;;;;;43.72;20.90;;;11.00;99.90;;;;;;5032672;28;20037;-56
2024/03/19 07:28:47;;;;;;;40.95;19.05;;;11.00;99.90;;;;;;5030882;28;20037;-55
2024/03/19 07:31:13;;;;;;;40.45;20.38;;;11.10;99.90;;;;;;5032398;28;20053;-60
2024/03/19 07:33:38;;;;;;;41.92;19.45;;;11.10;99.90;;;;;;5031959;28;20080;-55
2024/03/19 07:36:05;;;;;;;45.08;20.58;;;11.10;99.90;;;;;;5032226;28;20021;-57
2024/03/19 07:38:30;;;;;;;49.78;21.00;;;11.10;99.90;;;;;;5031001;28;20392;-59
2024/03/19 07:40:56;;;;;;;41.47;19.55;;;11.20;99.90;;;;;;5030902;28;20021;-55
2024/03/19 07:43:21;;;;;;;48.22;20.38;;;11.20;99.90;;;;;;5032021;28;20026;-58
2024/03/19 07:45:48;;;;;;;46.47;20.13;;;11.20;99.90;;;;;;5031861;28;20061;-58
2024/03/19 07:48:15;;;;;;;40.30;19.30;;;11.20;99.90;;;;;;5030515;28;20079;-58
2024/03/19 07:50:41;;;;;;;45.45;18.45;;;11.30;99.90;;;;;;5031776;28;20437;-59
2024/03/19 07:53:07;;;;;;;47.15;20.50;;;11.40;99.90;;;;;;5031663;28;20060;-60
2024/03/19 07:55:33;;;;;;;46.80;19.85;;;11.80;99.90;;;;;;5031931;28;20021;-58
2024/03/19 07:58:00;;;;;;;46.70;18.75;;;11.50;99.90;;;;;;5031691;28;20029;-57
2024/03/19 08:00:25;;;;;;;45.25;18.42;;;11.50;99.90;;;;;;5030266;28;20028;-54
2024/03/19 08:02:51;;;;;;;54.58;21.33;;;11.50;99.90;;;;;;5031691;28;20029;-58
2024/03/19 08:05:16;;;;;;;54.22;21.60;;;11.50;99.90;;;;;;5031672;28;20082;-53
2024/03/19 08:07:45;;;;;;;59.80;20.40;;;11.60;99.90;;;;;;5031415;28;20021;-58
2024/03/19 08:10:12;;;;;;;54.83;19.85;;;11.60;99.90;;;;;;5030862;28;20032;-55
2024/03/19 08:12:38;;;;;;;48.35;20.00;;;11.60;99.90;;;;;;5031469;28;20025;-54
2024/03/19 08:15:04;;;;;;;53.47;20.38;;;11.50;99.90;;;;;;5031397;28;20029;-57
2024/03/19 08:17:30;;;;;;;48.45;19.92;;;11.50;99.90;;;;;;5029856;28;20022;-57
2024/03/19 08:19:57;;;;;;;46.38;19.05;;;11.50;99.90;;;;;;5046433;28;20025;-56
2024/03/19 08:22:23;;;;;;;57.95;22.00;;;11.40;99.90;;;;;;5031403;28;20033;-56
2024/03/19 08:24:49;;;;;;;58.22;21.65;;;11.40;99.90;;;;;;5030070;28;20520;-58
2024/03/19 08:27:15;;;;;;;59.10;22.45;;;11.50;99.90;;;;;;5029902;28;20579;-57
2024/03/19 08:29:41;;;;;;;60.13;24.10;;;11.50;99.90;;;;;;5031119;28;20029;-52
2024/03/19 08:32:07;;;;;;;52.30;20.85;;;11.50;99.90;;;;;;5029798;28;20036;-57
2024/03/19 08:34:33;;;;;;;60.65;23.42;;;11.60;99.90;;;;;;5031190;28;20029;-56
2024/03/19 08:36:58;;;;;;;61.05;21.90;;;11.70;99.90;;;;;;5031131;28;20064;-58
2024/03/19 08:39:24;;;;;;;57.22;22.88;;;11.70;99.90;;;;;;5029757;28;20033;-60
2024/03/19 08:41:50;;;;;;;56.53;21.52;;;11.60;99.90;;;;;;5030902;28;20065;-56
2024/03/19 08:44:16;;;;;;;51.88;22.60;;;11.70;99.90;;;;;;5031015;28;20027;-57
2024/03/19 08:46:42;;;;;;;51.03;22.30;;;11.70;99.90;;;;;;5031169;28;20500;-57
2024/03/19 08:49:08;;;;;;;53.08;20.65;;;11.60;99.90;;;;;;5030998;28;20107;-54
2024/03/19 08:51:33;;;;;;;48.88;20.23;;;11.70;99.90;;;;;;5034548;28;20052;-55
2024/03/19 08:53:59;;;;;;;46.72;20.38;;;11.80;99.90;;;;;;5035198;28;20021;-57
2024/03/19 08:56:24;;;;;;;46.10;20.75;;;11.80;99.90;;;;;;5035366;28;20401;-58
2024/03/19 08:58:50;;;;;;;53.03;21.13;;;11.90;99.90;;;;;;5035258;28;20021;-57
2024/03/19 09:01:16;;;;;;;45.80;19.40;;;12.10;99.90;;;;;;5034599;28;20489;-59
2024/03/19 09:03:41;;;;;;;42.20;18.60;;;12.10;99.90;;;;;;5034758;28;20036;-60
2024/03/19 09:06:07;;;;;;;36.63;16.02;;;12.20;99.90;;;;;;5034737;28;20096;-60
2024/03/19 09:08:32;;;;;;;33.55;17.05;;;12.40;99.90;;;;;;5033028;28;20504;-55
2024/03/19 09:10:58;;;;;;;38.10;18.55;;;12.50;99.90;;;;;;5034202;28;20091;-57
2024/03/19 09:13:23;;;;;;;34.90;17.88;;;12.60;99.90;;;;;;5034350;28;20025;-58
2024/03/19 09:15:49;;;;;;;33.83;18.98;;;12.80;99.90;;;;;;5034303;28;20056;-58
2024/03/19 09:18:15;;;;;;;39.83;18.83;;;12.90;99.90;;;;;;5034465;28;20060;-58
2024/03/19 09:20:42;;;;;;;42.22;18.92;;;12.90;99.90;;;;;;5032939;28;20024;-58
2024/03/19 09:23:07;;;;;;;38.83;17.85;;;13.40;99.90;;;;;;5034391;28;20025;-58
2024/03/19 09:25:33;;;;;;;43.25;18.85;;;13.10;99.90;;;;;;5034478;28;20586;-57
2024/03/19 09:28:01;;;;;;;41.22;19.02;;;13.00;99.90;;;;;;5049456;28;20043;-58
2024/03/19 09:30:26;;;;;;;45.63;20.15;;;13.20;99.90;;;;;;5049277;28;20032;-57
2024/03/19 09:32:53;;;;;;;34.45;17.83;;;13.30;99.90;;;;;;5034027;28;20033;-58
2024/03/19 09:35:20;;;;;;;36.97;18.67;;;13.20;99.90;;;;;;5034313;28;20425;-57
2024/03/19 09:37:46;;;;;;;38.63;18.85;;;13.40;99.90;;;;;;5034002;28;20025;-58
2024/03/19 09:40:12;;;;;;;33.13;17.70;;;13.40;99.90;;;;;;5033791;28;20592;-58
2024/03/19 09:42:38;;;;;;;35.78;18.00;;;13.30;99.90;;;;;;5032682;28;20052;-53
2024/03/19 09:45:16;;;;;;;43.35;22.02;;;13.20;99.90;;;;;;5032536;28;20117;-58
2024/03/19 09:47:41;;;;;;;38.75;18.55;;;13.20;99.90;;;;;;5049266;28;20144;-58
2024/03/19 09:50:15;;;;;;;35.60;19.02;;;13.10;99.90;;;;;;5033602;28;20505;-58
2024/03/19 09:52:41;;;;;;;22.88;14.55;;;13.00;99.90;;;;;;5033838;28;20113;-59
2024/03/19 09:55:13;;;;;;;22.85;13.57;;;13.00;99.90;;;;;;5033683;28;20060;-57
2024/03/19 09:57:41;;;;;;;24.08;14.27;;;12.90;99.90;;;;;;5033919;28;20018;-58
2024/03/19 10:00:18;;;;;;;27.27;15.27;;;12.80;99.90;;;;;;5033514;28;20112;-58
2024/03/19 10:02:44;;;;;;;29.67;16.55;;;12.70;99.90;;;;;;5047918;28;20025;-60
2024/03/19 10:05:13;;;;;;;29.65;16.95;;;12.80;99.90;;;;;;5032414;28;20025;-58
2024/03/19 10:07:38;;;;;;;36.00;18.83;;;12.80;99.90;;;;;;5032200;28;20033;-56
2024/03/19 10:10:06;;;;;;;32.72;18.15;;;12.80;99.90;;;;;;5031535;28;20033;-59
2024/03/19 10:12:32;;;;;;;29.83;16.95;;;13.00;99.90;;;;;;5033530;28;20025;-61
2024/03/19 10:14:58;;;;;;;28.98;16.30;;;13.00;99.90;;;;;;5033294;28;20018;-59
2024/03/19 10:17:24;;;;;;;28.52;16.98;;;12.90;99.90;;;;;;5033220;28;20544;-59
2024/03/19 10:19:52;;;;;;;23.77;15.60;;;12.90;99.90;;;;;;5048300;28;20097;-60
2024/03/19 10:22:19;;;;;;;26.15;16.50;;;12.90;99.90;;;;;;5033450;28;20052;-56
2024/03/19 10:24:48;;;;;;;26.77;16.42;;;12.90;99.90;;;;;;5033454;28;20049;-59
2024/03/19 10:27:16;;;;;;;27.33;15.65;;;12.90;99.90;;;;;;5031982;28;20116;-59
2024/03/19 10:29:45;;;;;;;26.35;17.08;;;12.90;99.90;;;;;;5027513;28;20036;-62
2024/03/19 10:32:11;;;;;;;30.45;16.63;;;12.90;99.90;;;;;;5027902;28;20508;-64
2024/03/19 10:34:37;;;;;;;25.02;15.95;;;12.90;99.90;;;;;;5033023;28;20378;-62
2024/03/19 10:37:04;;;;;;;29.55;17.48;;;12.90;99.90;;;;;;5032796;28;20033;-57
2024/03/19 10:39:31;;;;;;;27.70;16.60;;;12.90;99.90;;;;;;5031226;28;20029;-61
2024/03/19 10:41:59;;;;;;;30.17;17.17;;;12.90;99.90;;;;;;5032769;28;20048;-62
2024/03/19 10:44:26;;;;;;;30.77;16.00;;;12.90;99.90;;;;;;5031962;28;20104;-61
2024/03/19 10:46:52;;;;;;;33.13;18.85;;;12.90;99.90;;;;;;5032426;28;20120;-61
2024/03/19 10:49:21;;;;;;;31.80;17.83;;;12.90;99.90;;;;;;5024941;28;20545;-59
2024/03/19 10:51:59;;;;;;;32.28;18.85;;;12.90;99.90;;;;;;5013194;28;20072;-60
2024/03/19 10:54:29;;;;;;;28.98;17.33;;;12.90;99.90;;;;;;5011601;28;20058;-58
2024/03/19 10:56:56;;;;;;;30.60;19.63;;;12.80;99.90;;;;;;5011680;28;20117;-59
2024/03/19 10:59:22;;;;;;;30.27;18.58;;;12.70;99.90;;;;;;5012926;28;20030;-58
2024/03/19 11:01:50;;;;;;;32.50;18.90;;;12.70;99.90;;;;;;5012743;28;20036;-59
2024/03/19 11:04:16;;;;;;;32.25;19.30;;;12.70;99.90;;;;;;5012953;28;20021;-62
2024/03/19 11:06:53;;;;;;;32.28;19.25;;;12.70;99.90;;;;;;5014584;28;20401;-58
2024/03/19 11:09:21;;;;;;;25.48;15.98;;;12.90;99.90;;;;;;5051179;28;20040;-56
2024/03/19 11:12:05;;;;;;;24.75;16.77;;;13.00;99.90;;;;;;5052019;28;20025;-60
2024/03/19 11:14:33;;;;;;;28.65;16.25;;;13.10;99.90;;;;;;5050838;28;20025;-60
2024/03/19 11:17:03;;;;;;;23.13;14.82;;;13.10;99.90;;;;;;5052447;28;20023;-60
2024/03/19 11:19:30;;;;;;;22.83;15.65;;;13.20;99.90;;;;;;5052279;28;20435;-59
2024/03/19 11:21:59;;;;;;;23.75;15.82;;;13.20;99.90;;;;;;5052402;28;20484;-58
2024/03/19 11:24:31;;;;;;;27.00;15.35;;;13.00;99.90;;;;;;5058019;28;20396;-60
2024/03/19 11:26:58;;;;;;;21.63;16.35;;;12.90;99.90;;;;;;5063721;28;20036;-60
2024/03/19 11:29:29;;;;;;;25.10;14.93;;;13.00;99.90;;;;;;5062629;28;20032;-58
2024/03/19 11:31:59;;;;;;;24.10;14.85;;;13.00;99.90;;;;;;5055048;28;20021;-60
2024/03/19 11:34:25;;;;;;;22.13;15.27;;;13.50;99.90;;;;;;5032052;28;20021;-62
2024/03/19 11:36:52;;;;;;;22.65;15.45;;;13.20;99.90;;;;;;5031979;28;20021;-61
2024/03/19 11:39:18;;;;;;;19.77;13.80;;;13.30;99.90;;;;;;5030642;28;20025;-60
2024/03/19 11:41:44;;;;;;;22.98;14.80;;;13.40;99.90;;;;;;5031964;28;20041;-60
2024/03/19 11:44:14;;;;;;;21.27;13.05;;;13.60;99.90;;;;;;5031635;28;20476;-61
2024/03/19 11:46:40;;;;;;;22.90;15.57;;;13.70;99.90;;;;;;5011880;28;20030;-61
2024/03/19 11:49:05;;;;;;;20.60;14.38;;;13.80;99.90;;;;;;5025352;28;20056;-60
2024/03/19 11:51:31;;;;;;;19.98;14.57;;;13.80;99.90;;;;;;5030984;28;20029;-60
2024/03/19 11:54:00;;;;;;;18.80;13.43;;;14.00;99.90;;;;;;5031377;28;20484;-59
2024/03/19 11:56:26;;;;;;;19.05;13.52;;;14.20;99.90;;;;;;5031496;28;20022;-61
2024/03/19 11:58:53;;;;;;;20.45;14.02;;;14.20;99.90;;;;;;5031635;28;20477;-59
2024/03/19 12:01:19;;;;;;;18.00;13.48;;;14.40;99.90;;;;;;5029852;28;20535;-59
2024/03/19 12:03:45;;;;;;;16.33;13.20;;;14.40;99.90;;;;;;5031876;28;20021;-60
2024/03/19 12:06:11;;;;;;;20.15;14.32;;;14.50;99.90;;;;;;5031383;28;20046;-58
2024/03/19 12:08:36;;;;;;;17.98;14.52;;;14.70;99.90;;;;;;5031103;28;20037;-57
2024/03/19 12:11:05;;;;;;;17.55;13.32;;;14.70;99.90;;;;;;5031234;28;20037;-58
2024/03/19 12:13:31;;;;;;;17.13;13.02;;;14.60;99.90;;;;;;5031387;28;20033;-59
2024/03/19 12:15:57;;;;;;;19.42;13.82;;;14.60;99.90;;;;;;5030352;28;20388;-60
2024/03/19 12:18:23;;;;;;;19.00;14.60;;;14.60;99.90;;;;;;5030773;28;20048;-58
2024/03/19 12:20:48;;;;;;;24.00;13.80;;;14.60;99.90;;;;;;5031228;28;20025;-58
2024/03/19 12:23:14;;;;;;;47.97;31.38;;;14.60;99.90;;;;;;5030046;28;20029;-57
2024/03/19 12:25:40;;;;;;;23.35;15.30;;;14.50;99.90;;;;;;5030835;28;20021;-58
2024/03/19 12:28:07;;;;;;;20.48;14.85;;;14.50;99.90;;;;;;5029581;28;20029;-53